sensor_id;sensor_type;location;lat;lon;timestamp;temperature;humidity
8422;DHT22;4248;48.196;10.924;2022-10-31T00:02:18;9.50;68.90
8422;DHT22;4248;48.196;10.924;2022-10-31T00:04:44;9.40;68.90
8422;DHT22;4248;48.196;10.924;2022-10-31T00:07:09;9.40;69.10
8422;DHT22;4248;48.196;10.924;2022-10-31T00:09:35;9.40;68.20
8422;DHT22;4248;48.196;10.924;2022-10-31T00:12:00;9.40;69.20
8422;DHT22;4248;48.196;10.924;2022-10-31T00:14:26;9.30;69.20
8422;DHT22;4248;48.196;10.924;2022-10-31T00:16:52;9.30;69.40
8422;DHT22;4248;48.196;10.924;2022-10-31T00:19:17;9.10;68.80
8422;DHT22;4248;48.196;10.924;2022-10-31T00:21:43;9.10;69.80
8422;DHT22;4248;48.196;10.924;2022-10-31T00:24:10;9.10;69.80
8422;DHT22;4248;48.196;10.924;2022-10-31T00:26:35;9.10;69.70
8422;DHT22;4248;48.196;10.924;2022-10-31T00:29:01;9.10;69.70
8422;DHT22;4248;48.196;10.924;2022-10-31T00:31:27;9.10;68.70
8422;DHT22;4248;48.196;10.924;2022-10-31T00:33:53;9.10;69.60
8422;DHT22;4248;48.196;10.924;2022-10-31T00:36:19;9.10;69.50
8422;DHT22;4248;48.196;10.924;2022-10-31T00:38:46;9.10;69.40
8422;DHT22;4248;48.196;10.924;2022-10-31T00:41:14;9.10;68.30
8422;DHT22;4248;48.196;10.924;2022-10-31T00:43:44;9.20;69.40
8422;DHT22;4248;48.196;10.924;2022-10-31T00:46:10;9.20;69.20
8422;DHT22;4248;48.196;10.924;2022-10-31T00:48:36;9.30;69.20
8422;DHT22;4248;48.196;10.924;2022-10-31T00:51:02;9.30;69.10
8422;DHT22;4248;48.196;10.924;2022-10-31T00:53:28;9.30;69.00
8422;DHT22;4248;48.196;10.924;2022-10-31T00:55:53;9.40;69.10
8422;DHT22;4248;48.196;10.924;2022-10-31T00:58:19;9.40;68.90
8422;DHT22;4248;48.196;10.924;2022-10-31T01:00:47;9.50;69.00
8422;DHT22;4248;48.196;10.924;2022-10-31T01:03:23;9.50;68.90
8422;DHT22;4248;48.196;10.924;2022-10-31T01:08:22;9.50;68.90
8422;DHT22;4248;48.196;10.924;2022-10-31T01:10:58;9.40;68.20
8422;DHT22;4248;48.196;10.924;2022-10-31T01:13:24;9.40;69.30
8422;DHT22;4248;48.196;10.924;2022-10-31T01:15:59;9.40;69.30
8422;DHT22;4248;48.196;10.924;2022-10-31T01:18:26;9.40;69.40
8422;DHT22;4248;48.196;10.924;2022-10-31T01:21:06;9.40;69.30
8422;DHT22;4248;48.196;10.924;2022-10-31T01:23:33;9.40;69.30
8422;DHT22;4248;48.196;10.924;2022-10-31T01:26:23;9.40;69.20
8422;DHT22;4248;48.196;10.924;2022-10-31T01:28:53;9.40;69.40
8422;DHT22;4248;48.196;10.924;2022-10-31T01:31:21;9.30;68.50
8422;DHT22;4248;48.196;10.924;2022-10-31T01:33:47;9.20;69.70
8422;DHT22;4248;48.196;10.924;2022-10-31T01:36:23;9.10;70.00
8422;DHT22;4248;48.196;10.924;2022-10-31T01:38:50;9.10;70.00
8422;DHT22;4248;48.196;10.924;2022-10-31T01:41:22;9.00;69.00
8422;DHT22;4248;48.196;10.924;2022-10-31T01:43:55;9.00;70.00
8422;DHT22;4248;48.196;10.924;2022-10-31T01:46:31;9.10;69.90
8422;DHT22;4248;48.196;10.924;2022-10-31T01:49:00;9.10;69.60
8422;DHT22;4248;48.196;10.924;2022-10-31T01:51:31;9.20;68.70
8422;DHT22;4248;48.196;10.924;2022-10-31T01:54:02;9.20;69.60
8422;DHT22;4248;48.196;10.924;2022-10-31T01:56:29;9.20;69.60
8422;DHT22;4248;48.196;10.924;2022-10-31T01:58:56;9.10;69.70
8422;DHT22;4248;48.196;10.924;2022-10-31T02:01:23;9.10;68.80
8422;DHT22;4248;48.196;10.924;2022-10-31T02:03:49;9.00;69.90
8422;DHT22;4248;48.196;10.924;2022-10-31T02:06:44;8.90;70.00
8422;DHT22;4248;48.196;10.924;2022-10-31T02:09:07;8.80;70.20
8422;DHT22;4248;48.196;10.924;2022-10-31T02:11:34;8.70;69.30
8422;DHT22;4248;48.196;10.924;2022-10-31T02:14:02;8.60;70.50
8422;DHT22;4248;48.196;10.924;2022-10-31T02:16:28;8.60;70.70
8422;DHT22;4248;48.196;10.924;2022-10-31T02:18:54;8.60;70.80
8422;DHT22;4248;48.196;10.924;2022-10-31T02:21:50;8.60;69.70
8422;DHT22;4248;48.196;10.924;2022-10-31T02:30:23;8.60;69.20
8422;DHT22;4248;48.196;10.924;2022-10-31T02:38:34;8.60;70.00
8422;DHT22;4248;48.196;10.924;2022-10-31T02:41:27;8.70;68.90
8422;DHT22;4248;48.196;10.924;2022-10-31T02:44:07;8.70;69.90
8422;DHT22;4248;48.196;10.924;2022-10-31T02:46:35;8.70;69.80
8422;DHT22;4248;48.196;10.924;2022-10-31T02:49:11;8.80;69.80
8422;DHT22;4248;48.196;10.924;2022-10-31T02:51:40;8.70;68.60
8422;DHT22;4248;48.196;10.924;2022-10-31T02:54:19;8.70;69.90
8422;DHT22;4248;48.196;10.924;2022-10-31T02:56:47;8.60;70.10
8422;DHT22;4248;48.196;10.924;2022-10-31T02:59:14;8.40;69.40
8422;DHT22;4248;48.196;10.924;2022-10-31T03:15:23;8.30;70.30
8422;DHT22;4248;48.196;10.924;2022-10-31T03:20:39;8.30;69.00
8422;DHT22;4248;48.196;10.924;2022-10-31T03:23:10;8.30;70.00
8422;DHT22;4248;48.196;10.924;2022-10-31T03:25:37;8.30;70.00
8422;DHT22;4248;48.196;10.924;2022-10-31T03:28:06;8.40;70.00
8422;DHT22;4248;48.196;10.924;2022-10-31T03:30:35;8.40;68.80
8422;DHT22;4248;48.196;10.924;2022-10-31T03:33:05;8.40;69.90
8422;DHT22;4248;48.196;10.924;2022-10-31T03:35:33;8.30;69.80
8422;DHT22;4248;48.196;10.924;2022-10-31T03:38:00;8.30;70.00
8422;DHT22;4248;48.196;10.924;2022-10-31T03:40:27;8.20;69.20
8422;DHT22;4248;48.196;10.924;2022-10-31T03:42:58;8.20;70.40
8422;DHT22;4248;48.196;10.924;2022-10-31T03:45:27;8.20;70.30
8422;DHT22;4248;48.196;10.924;2022-10-31T03:47:54;8.10;70.30
8422;DHT22;4248;48.196;10.924;2022-10-31T03:50:21;8.10;69.50
8422;DHT22;4248;48.196;10.924;2022-10-31T03:52:59;8.10;70.50
8422;DHT22;4248;48.196;10.924;2022-10-31T03:55:40;8.10;70.40
8422;DHT22;4248;48.196;10.924;2022-10-31T03:58:10;8.00;70.40
8422;DHT22;4248;48.196;10.924;2022-10-31T04:00:40;8.00;69.30
8422;DHT22;4248;48.196;10.924;2022-10-31T04:03:14;8.00;70.30
8422;DHT22;4248;48.196;10.924;2022-10-31T04:05:43;8.00;70.40
8422;DHT22;4248;48.196;10.924;2022-10-31T04:08:15;8.00;70.30
8422;DHT22;4248;48.196;10.924;2022-10-31T04:10:43;8.00;69.30
8422;DHT22;4248;48.196;10.924;2022-10-31T04:13:14;8.00;70.20
8422;DHT22;4248;48.196;10.924;2022-10-31T04:15:41;8.00;70.20
8422;DHT22;4248;48.196;10.924;2022-10-31T04:18:08;8.00;70.00
8422;DHT22;4248;48.196;10.924;2022-10-31T04:20:40;8.10;69.10
8422;DHT22;4248;48.196;10.924;2022-10-31T04:23:34;8.00;70.00
8422;DHT22;4248;48.196;10.924;2022-10-31T04:25:58;8.00;70.00
8422;DHT22;4248;48.196;10.924;2022-10-31T04:28:24;8.00;70.00
8422;DHT22;4248;48.196;10.924;2022-10-31T04:30:50;8.00;69.10
8422;DHT22;4248;48.196;10.924;2022-10-31T04:33:16;8.00;70.20
8422;DHT22;4248;48.196;10.924;2022-10-31T04:35:43;7.90;70.20
8422;DHT22;4248;48.196;10.924;2022-10-31T04:38:09;7.90;70.30
8422;DHT22;4248;48.196;10.924;2022-10-31T04:40:34;7.80;69.30
8422;DHT22;4248;48.196;10.924;2022-10-31T04:43:00;7.80;70.40
8422;DHT22;4248;48.196;10.924;2022-10-31T04:45:26;7.80;70.20
8422;DHT22;4248;48.196;10.924;2022-10-31T04:47:51;7.80;70.20
8422;DHT22;4248;48.196;10.924;2022-10-31T04:50:17;7.80;69.10
8422;DHT22;4248;48.196;10.924;2022-10-31T04:52:44;7.80;70.10
8422;DHT22;4248;48.196;10.924;2022-10-31T04:55:11;7.80;70.10
8422;DHT22;4248;48.196;10.924;2022-10-31T04:57:42;7.60;70.10
8422;DHT22;4248;48.196;10.924;2022-10-31T05:00:08;7.60;69.30
8422;DHT22;4248;48.196;10.924;2022-10-31T05:02:34;7.60;70.40
8422;DHT22;4248;48.196;10.924;2022-10-31T05:05:00;7.60;70.30
8422;DHT22;4248;48.196;10.924;2022-10-31T05:07:25;7.60;70.20
8422;DHT22;4248;48.196;10.924;2022-10-31T05:09:51;7.60;70.20
8422;DHT22;4248;48.196;10.924;2022-10-31T05:12:17;7.60;70.30
8422;DHT22;4248;48.196;10.924;2022-10-31T05:14:42;7.50;70.20
8422;DHT22;4248;48.196;10.924;2022-10-31T05:17:08;7.50;70.30
8422;DHT22;4248;48.196;10.924;2022-10-31T05:19:33;7.50;69.30
8422;DHT22;4248;48.196;10.924;2022-10-31T05:21:59;7.50;70.20
8422;DHT22;4248;48.196;10.924;2022-10-31T05:24:25;7.40;70.20
8422;DHT22;4248;48.196;10.924;2022-10-31T05:26:50;7.40;70.20
8422;DHT22;4248;48.196;10.924;2022-10-31T05:29:16;7.40;69.40
8422;DHT22;4248;48.196;10.924;2022-10-31T05:31:42;7.40;70.50
8422;DHT22;4248;48.196;10.924;2022-10-31T05:34:07;7.60;70.40
8422;DHT22;4248;48.196;10.924;2022-10-31T05:36:33;7.80;70.30
8422;DHT22;4248;48.196;10.924;2022-10-31T05:38:59;7.70;70.40
8422;DHT22;4248;48.196;10.924;2022-10-31T05:41:24;7.70;69.80
8422;DHT22;4248;48.196;10.924;2022-10-31T05:43:50;7.60;71.10
8422;DHT22;4248;48.196;10.924;2022-10-31T05:46:15;7.60;71.10
8422;DHT22;4248;48.196;10.924;2022-10-31T05:48:41;7.60;71.10
8422;DHT22;4248;48.196;10.924;2022-10-31T05:51:07;7.50;70.00
8422;DHT22;4248;48.196;10.924;2022-10-31T05:53:32;7.50;71.10
8422;DHT22;4248;48.196;10.924;2022-10-31T05:55:58;7.50;71.10
8422;DHT22;4248;48.196;10.924;2022-10-31T05:58:24;7.50;71.10
8422;DHT22;4248;48.196;10.924;2022-10-31T06:00:49;7.40;70.20
8422;DHT22;4248;48.196;10.924;2022-10-31T06:03:15;7.50;71.20
8422;DHT22;4248;48.196;10.924;2022-10-31T06:05:41;7.50;71.10
8422;DHT22;4248;48.196;10.924;2022-10-31T06:08:06;7.50;71.10
8422;DHT22;4248;48.196;10.924;2022-10-31T06:10:32;7.60;70.10
8422;DHT22;4248;48.196;10.924;2022-10-31T06:12:58;7.60;71.10
8422;DHT22;4248;48.196;10.924;2022-10-31T06:15:23;7.60;71.10
8422;DHT22;4248;48.196;10.924;2022-10-31T06:17:58;7.70;71.10
8422;DHT22;4248;48.196;10.924;2022-10-31T06:20:24;7.70;70.00
8422;DHT22;4248;48.196;10.924;2022-10-31T06:22:50;7.70;69.90
8422;DHT22;4248;48.196;10.924;2022-10-31T06:25:16;7.80;70.90
8422;DHT22;4248;48.196;10.924;2022-10-31T06:27:41;7.80;70.90
8422;DHT22;4248;48.196;10.924;2022-10-31T06:30:07;7.90;69.90
8422;DHT22;4248;48.196;10.924;2022-10-31T06:32:33;8.00;70.80
8422;DHT22;4248;48.196;10.924;2022-10-31T06:34:59;8.00;70.80
8422;DHT22;4248;48.196;10.924;2022-10-31T06:37:24;8.10;70.70
8422;DHT22;4248;48.196;10.924;2022-10-31T06:39:50;8.20;70.70
8422;DHT22;4248;48.196;10.924;2022-10-31T06:42:16;8.30;70.60
8422;DHT22;4248;48.196;10.924;2022-10-31T06:44:42;8.30;70.50
8422;DHT22;4248;48.196;10.924;2022-10-31T06:47:07;8.40;70.30
8422;DHT22;4248;48.196;10.924;2022-10-31T06:49:33;8.60;69.20
8422;DHT22;4248;48.196;10.924;2022-10-31T06:51:59;8.60;70.20
8422;DHT22;4248;48.196;10.924;2022-10-31T06:54:25;8.70;70.10
8422;DHT22;4248;48.196;10.924;2022-10-31T06:56:51;8.70;70.20
8422;DHT22;4248;48.196;10.924;2022-10-31T06:59:17;8.80;70.20
8422;DHT22;4248;48.196;10.924;2022-10-31T07:01:43;8.80;71.10
8422;DHT22;4248;48.196;10.924;2022-10-31T07:04:12;8.80;71.30
8422;DHT22;4248;48.196;10.924;2022-10-31T07:06:38;8.90;71.30
8422;DHT22;4248;48.196;10.924;2022-10-31T07:09:04;9.00;71.80
8422;DHT22;4248;48.196;10.924;2022-10-31T07:11:30;9.00;70.50
8422;DHT22;4248;48.196;10.924;2022-10-31T07:13:56;9.00;71.50
8422;DHT22;4248;48.196;10.924;2022-10-31T07:16:22;9.10;71.20
8422;DHT22;4248;48.196;10.924;2022-10-31T07:18:48;9.10;71.00
8422;DHT22;4248;48.196;10.924;2022-10-31T07:21:14;9.30;70.50
8422;DHT22;4248;48.196;10.924;2022-10-31T07:23:40;9.40;71.20
8422;DHT22;4248;48.196;10.924;2022-10-31T07:26:05;9.50;70.80
8422;DHT22;4248;48.196;10.924;2022-10-31T07:28:31;9.70;70.80
8422;DHT22;4248;48.196;10.924;2022-10-31T07:30:57;9.80;69.10
8422;DHT22;4248;48.196;10.924;2022-10-31T07:33:24;10.00;69.00
8422;DHT22;4248;48.196;10.924;2022-10-31T07:35:53;10.10;68.70
8422;DHT22;4248;48.196;10.924;2022-10-31T07:38:19;10.30;68.40
8422;DHT22;4248;48.196;10.924;2022-10-31T07:40:50;10.50;67.20
8422;DHT22;4248;48.196;10.924;2022-10-31T07:43:18;10.50;68.10
8422;DHT22;4248;48.196;10.924;2022-10-31T07:45:49;10.70;68.10
8422;DHT22;4248;48.196;10.924;2022-10-31T07:48:17;10.80;68.00
8422;DHT22;4248;48.196;10.924;2022-10-31T07:50:45;11.10;67.00
8422;DHT22;4248;48.196;10.924;2022-10-31T07:53:12;11.20;67.90
8422;DHT22;4248;48.196;10.924;2022-10-31T07:55:39;11.30;67.70
8422;DHT22;4248;48.196;10.924;2022-10-31T07:58:10;11.50;66.60
8422;DHT22;4248;48.196;10.924;2022-10-31T08:00:37;11.80;66.40
8422;DHT22;4248;48.196;10.924;2022-10-31T08:03:15;11.90;67.50
8422;DHT22;4248;48.196;10.924;2022-10-31T08:05:41;12.10;67.40
8422;DHT22;4248;48.196;10.924;2022-10-31T08:08:08;12.30;67.30
8422;DHT22;4248;48.196;10.924;2022-10-31T08:10:34;12.50;65.80
8422;DHT22;4248;48.196;10.924;2022-10-31T08:13:05;12.60;66.90
8422;DHT22;4248;48.196;10.924;2022-10-31T08:15:31;12.80;67.00
8422;DHT22;4248;48.196;10.924;2022-10-31T08:17:59;13.00;67.20
8422;DHT22;4248;48.196;10.924;2022-10-31T08:20:25;13.10;66.20
8422;DHT22;4248;48.196;10.924;2022-10-31T08:22:58;13.20;67.30
8422;DHT22;4248;48.196;10.924;2022-10-31T08:25:25;13.30;67.00
8422;DHT22;4248;48.196;10.924;2022-10-31T08:27:52;13.40;67.10
8422;DHT22;4248;48.196;10.924;2022-10-31T08:30:23;13.60;65.80
8422;DHT22;4248;48.196;10.924;2022-10-31T08:35:25;13.80;66.70
8422;DHT22;4248;48.196;10.924;2022-10-31T08:37:57;14.00;66.70
8422;DHT22;4248;48.196;10.924;2022-10-31T08:40:24;14.10;65.40
8422;DHT22;4248;48.196;10.924;2022-10-31T08:43:01;14.20;66.40
8422;DHT22;4248;48.196;10.924;2022-10-31T08:45:28;14.20;66.40
8422;DHT22;4248;48.196;10.924;2022-10-31T08:47:59;14.40;66.50
8422;DHT22;4248;48.196;10.924;2022-10-31T08:50:25;14.50;65.40
8422;DHT22;4248;48.196;10.924;2022-10-31T08:52:51;14.50;66.40
8422;DHT22;4248;48.196;10.924;2022-10-31T08:55:16;14.70;66.50
8422;DHT22;4248;48.196;10.924;2022-10-31T08:57:42;14.80;66.40
8422;DHT22;4248;48.196;10.924;2022-10-31T09:00:08;15.00;65.00
8422;DHT22;4248;48.196;10.924;2022-10-31T09:02:34;15.10;66.00
8422;DHT22;4248;48.196;10.924;2022-10-31T09:05:00;15.20;65.80
8422;DHT22;4248;48.196;10.924;2022-10-31T09:07:25;15.20;66.00
8422;DHT22;4248;48.196;10.924;2022-10-31T09:09:51;15.30;65.20
8422;DHT22;4248;48.196;10.924;2022-10-31T09:12:17;15.30;66.10
8422;DHT22;4248;48.196;10.924;2022-10-31T09:14:42;15.40;66.00
8422;DHT22;4248;48.196;10.924;2022-10-31T09:17:08;15.50;65.80
8422;DHT22;4248;48.196;10.924;2022-10-31T09:19:34;15.80;64.20
8422;DHT22;4248;48.196;10.924;2022-10-31T09:22:01;15.80;65.30
8422;DHT22;4248;48.196;10.924;2022-10-31T09:24:26;16.00;65.00
8422;DHT22;4248;48.196;10.924;2022-10-31T09:26:52;16.10;63.40
8422;DHT22;4248;48.196;10.924;2022-10-31T09:29:18;16.50;62.70
8422;DHT22;4248;48.196;10.924;2022-10-31T09:31:43;16.50;63.70
8422;DHT22;4248;48.196;10.924;2022-10-31T09:34:09;16.80;63.30
8422;DHT22;4248;48.196;10.924;2022-10-31T09:36:36;16.90;62.60
8422;DHT22;4248;48.196;10.924;2022-10-31T09:39:02;16.90;62.40
8422;DHT22;4248;48.196;10.924;2022-10-31T09:41:59;17.10;61.00
8422;DHT22;4248;48.196;10.924;2022-10-31T09:50:53;17.40;60.70
8422;DHT22;4248;48.196;10.924;2022-10-31T09:55:49;17.50;61.90
8422;DHT22;4248;48.196;10.924;2022-10-31T09:58:22;17.50;61.70
8422;DHT22;4248;48.196;10.924;2022-10-31T10:00:48;17.60;61.20
8422;DHT22;4248;48.196;10.924;2022-10-31T10:03:34;17.60;61.20
8422;DHT22;4248;48.196;10.924;2022-10-31T10:06:26;17.60;61.20
8422;DHT22;4248;48.196;10.924;2022-10-31T10:08:52;17.60;61.20
8422;DHT22;4248;48.196;10.924;2022-10-31T10:20:04;18.00;59.90
8422;DHT22;4248;48.196;10.924;2022-10-31T10:25:20;18.20;61.40
8422;DHT22;4248;48.196;10.924;2022-10-31T10:36:12;18.50;59.50
8422;DHT22;4248;48.196;10.924;2022-10-31T10:41:22;18.70;57.90
8422;DHT22;4248;48.196;10.924;2022-10-31T10:43:49;18.70;59.30
8422;DHT22;4248;48.196;10.924;2022-10-31T10:49:19;18.70;59.00
8422;DHT22;4248;48.196;10.924;2022-10-31T10:57:58;18.70;58.70
8422;DHT22;4248;48.196;10.924;2022-10-31T11:00:31;18.90;56.90
8422;DHT22;4248;48.196;10.924;2022-10-31T11:02:57;18.90;57.50
8422;DHT22;4248;48.196;10.924;2022-10-31T11:07:49;19.10;57.30
8422;DHT22;4248;48.196;10.924;2022-10-31T11:10:15;19.20;55.50
8422;DHT22;4248;48.196;10.924;2022-10-31T11:12:42;19.20;56.50
8422;DHT22;4248;48.196;10.924;2022-10-31T11:15:20;19.40;55.90
8422;DHT22;4248;48.196;10.924;2022-10-31T11:17:49;19.40;55.20
8422;DHT22;4248;48.196;10.924;2022-10-31T11:22:46;19.50;55.20
8422;DHT22;4248;48.196;10.924;2022-10-31T11:25:26;19.60;54.10
8422;DHT22;4248;48.196;10.924;2022-10-31T11:28:04;19.70;53.60
8422;DHT22;4248;48.196;10.924;2022-10-31T11:30:41;19.80;52.40
8422;DHT22;4248;48.196;10.924;2022-10-31T11:33:37;19.80;53.30
8422;DHT22;4248;48.196;10.924;2022-10-31T11:36:26;19.90;52.90
8422;DHT22;4248;48.196;10.924;2022-10-31T11:38:51;20.00;52.80
8422;DHT22;4248;48.196;10.924;2022-10-31T11:41:20;20.00;51.10
8422;DHT22;4248;48.196;10.924;2022-10-31T11:43:53;20.00;52.40
8422;DHT22;4248;48.196;10.924;2022-10-31T11:47:09;20.10;51.90
8422;DHT22;4248;48.196;10.924;2022-10-31T11:51:48;20.20;51.50
8422;DHT22;4248;48.196;10.924;2022-10-31T11:54:40;20.20;51.70
8422;DHT22;4248;48.196;10.924;2022-10-31T11:59:55;19.90;51.20
8422;DHT22;4248;48.196;10.924;2022-10-31T12:02:21;19.80;52.30
8422;DHT22;4248;48.196;10.924;2022-10-31T12:07:24;19.80;53.00
8422;DHT22;4248;48.196;10.924;2022-10-31T12:09:50;19.70;51.90
8422;DHT22;4248;48.196;10.924;2022-10-31T12:15:27;19.70;53.20
8422;DHT22;4248;48.196;10.924;2022-10-31T12:25:59;19.60;53.60
8422;DHT22;4248;48.196;10.924;2022-10-31T12:34:40;19.50;54.10
8422;DHT22;4248;48.196;10.924;2022-10-31T12:50:56;18.80;54.60
8422;DHT22;4248;48.196;10.924;2022-10-31T12:53:27;18.80;55.80
8422;DHT22;4248;48.196;10.924;2022-10-31T12:59:12;18.80;56.10
8422;DHT22;4248;48.196;10.924;2022-10-31T13:01:48;18.70;55.20
8422;DHT22;4248;48.196;10.924;2022-10-31T13:07:00;18.60;56.60
8422;DHT22;4248;48.196;10.924;2022-10-31T13:09:53;18.50;56.40
8422;DHT22;4248;48.196;10.924;2022-10-31T13:12:22;18.50;57.30
8422;DHT22;4248;48.196;10.924;2022-10-31T13:14:57;18.50;57.40
8422;DHT22;4248;48.196;10.924;2022-10-31T13:17:28;18.40;57.50
8422;DHT22;4248;48.196;10.924;2022-10-31T13:22:38;18.50;57.50
8422;DHT22;4248;48.196;10.924;2022-10-31T13:27:54;18.70;57.50
8422;DHT22;4248;48.196;10.924;2022-10-31T13:30:27;18.80;56.20
8422;DHT22;4248;48.196;10.924;2022-10-31T13:32:56;18.90;57.20
8422;DHT22;4248;48.196;10.924;2022-10-31T13:40:42;19.40;54.70
8422;DHT22;4248;48.196;10.924;2022-10-31T13:43:29;19.50;55.80
8422;DHT22;4248;48.196;10.924;2022-10-31T13:45:58;19.60;55.60
8422;DHT22;4248;48.196;10.924;2022-10-31T13:51:04;19.40;54.50
8422;DHT22;4248;48.196;10.924;2022-10-31T14:01:24;18.90;55.60
8422;DHT22;4248;48.196;10.924;2022-10-31T14:04:14;18.90;56.70
8422;DHT22;4248;48.196;10.924;2022-10-31T14:07:06;18.90;56.80
8422;DHT22;4248;48.196;10.924;2022-10-31T14:09:39;18.80;55.90
8422;DHT22;4248;48.196;10.924;2022-10-31T14:15:12;18.70;57.10
8422;DHT22;4248;48.196;10.924;2022-10-31T14:18:05;18.70;57.50
8422;DHT22;4248;48.196;10.924;2022-10-31T14:20:38;18.70;56.60
8422;DHT22;4248;48.196;10.924;2022-10-31T14:28:59;18.70;57.70
8422;DHT22;4248;48.196;10.924;2022-10-31T14:31:40;18.60;56.80
8422;DHT22;4248;48.196;10.924;2022-10-31T14:50:50;18.40;57.80
8422;DHT22;4248;48.196;10.924;2022-10-31T14:53:29;18.50;58.80
8422;DHT22;4248;48.196;10.924;2022-10-31T14:55:57;18.40;58.90
8422;DHT22;4248;48.196;10.924;2022-10-31T15:00:55;18.20;58.20
8422;DHT22;4248;48.196;10.924;2022-10-31T15:03:26;18.30;59.40
8422;DHT22;4248;48.196;10.924;2022-10-31T15:05:56;18.20;59.20
8422;DHT22;4248;48.196;10.924;2022-10-31T15:08:43;18.20;59.30
8422;DHT22;4248;48.196;10.924;2022-10-31T15:11:20;18.10;58.50
8422;DHT22;4248;48.196;10.924;2022-10-31T15:16:38;18.00;59.90
8422;DHT22;4248;48.196;10.924;2022-10-31T15:19:07;18.00;60.00
8422;DHT22;4248;48.196;10.924;2022-10-31T15:21:33;17.90;59.20
8422;DHT22;4248;48.196;10.924;2022-10-31T15:24:01;17.90;60.20
8422;DHT22;4248;48.196;10.924;2022-10-31T15:26:32;17.90;60.60
8422;DHT22;4248;48.196;10.924;2022-10-31T15:29:04;17.80;60.70
8422;DHT22;4248;48.196;10.924;2022-10-31T15:31:30;17.70;59.90
8422;DHT22;4248;48.196;10.924;2022-10-31T15:34:03;17.70;61.10
8422;DHT22;4248;48.196;10.924;2022-10-31T15:36:30;17.70;61.40
8422;DHT22;4248;48.196;10.924;2022-10-31T15:38:58;17.50;61.50
8422;DHT22;4248;48.196;10.924;2022-10-31T15:44:00;17.40;62.20
8422;DHT22;4248;48.196;10.924;2022-10-31T15:46:28;17.30;62.30
8422;DHT22;4248;48.196;10.924;2022-10-31T15:48:55;17.30;62.60
8422;DHT22;4248;48.196;10.924;2022-10-31T15:51:30;17.10;62.10
8422;DHT22;4248;48.196;10.924;2022-10-31T15:53:57;17.00;63.40
8422;DHT22;4248;48.196;10.924;2022-10-31T15:56:28;16.90;63.70
8422;DHT22;4248;48.196;10.924;2022-10-31T15:58:56;16.80;63.90
8422;DHT22;4248;48.196;10.924;2022-10-31T16:01:23;16.60;63.40
8422;DHT22;4248;48.196;10.924;2022-10-31T16:06:24;16.30;65.20
8422;DHT22;4248;48.196;10.924;2022-10-31T16:08:50;16.20;65.70
8422;DHT22;4248;48.196;10.924;2022-10-31T16:13:55;16.00;66.60
8422;DHT22;4248;48.196;10.924;2022-10-31T16:16:23;15.80;66.90
8422;DHT22;4248;48.196;10.924;2022-10-31T16:18:51;15.70;67.30
8422;DHT22;4248;48.196;10.924;2022-10-31T16:21:33;15.60;67.00
8422;DHT22;4248;48.196;10.924;2022-10-31T16:26:41;15.30;68.70
8422;DHT22;4248;48.196;10.924;2022-10-31T16:31:59;15.00;69.00
8422;DHT22;4248;48.196;10.924;2022-10-31T16:36:52;14.80;68.60
8422;DHT22;4248;48.196;10.924;2022-10-31T16:39:18;14.60;69.40
8422;DHT22;4248;48.196;10.924;2022-10-31T16:41:50;14.60;70.40
8422;DHT22;4248;48.196;10.924;2022-10-31T16:44:25;14.50;70.00
8422;DHT22;4248;48.196;10.924;2022-10-31T16:49:37;14.40;71.00
8422;DHT22;4248;48.196;10.924;2022-10-31T16:52:03;14.30;71.80
8422;DHT22;4248;48.196;10.924;2022-10-31T16:54:29;14.30;72.00
8422;DHT22;4248;48.196;10.924;2022-10-31T16:56:55;14.30;72.30
8422;DHT22;4248;48.196;10.924;2022-10-31T16:59:20;14.20;71.30
8422;DHT22;4248;48.196;10.924;2022-10-31T17:01:48;14.20;72.40
8422;DHT22;4248;48.196;10.924;2022-10-31T17:04:15;14.10;72.30
8422;DHT22;4248;48.196;10.924;2022-10-31T17:06:41;14.00;72.30
8422;DHT22;4248;48.196;10.924;2022-10-31T17:09:07;13.90;72.50
8422;DHT22;4248;48.196;10.924;2022-10-31T17:11:33;13.80;71.50
8422;DHT22;4248;48.196;10.924;2022-10-31T17:14:00;13.70;72.70
8422;DHT22;4248;48.196;10.924;2022-10-31T17:16:26;13.60;72.80
8422;DHT22;4248;48.196;10.924;2022-10-31T17:18:51;13.60;73.10
8422;DHT22;4248;48.196;10.924;2022-10-31T17:21:22;13.50;72.10
8422;DHT22;4248;48.196;10.924;2022-10-31T17:23:49;13.40;73.00
8422;DHT22;4248;48.196;10.924;2022-10-31T17:26:15;13.30;73.00
8422;DHT22;4248;48.196;10.924;2022-10-31T17:28:41;13.20;73.00
8422;DHT22;4248;48.196;10.924;2022-10-31T17:31:26;13.10;72.10
8422;DHT22;4248;48.196;10.924;2022-10-31T17:33:54;13.00;73.20
8422;DHT22;4248;48.196;10.924;2022-10-31T17:36:20;12.90;73.10
8422;DHT22;4248;48.196;10.924;2022-10-31T17:38:46;12.80;73.10
8422;DHT22;4248;48.196;10.924;2022-10-31T17:41:11;12.80;72.20
8422;DHT22;4248;48.196;10.924;2022-10-31T17:43:37;12.60;73.40
8422;DHT22;4248;48.196;10.924;2022-10-31T17:46:03;12.30;73.60
8422;DHT22;4248;48.196;10.924;2022-10-31T17:48:29;12.10;73.90
8422;DHT22;4248;48.196;10.924;2022-10-31T17:50:58;12.00;73.10
8422;DHT22;4248;48.196;10.924;2022-10-31T17:53:23;11.90;74.00
8422;DHT22;4248;48.196;10.924;2022-10-31T17:55:49;11.90;73.90
8422;DHT22;4248;48.196;10.924;2022-10-31T17:58:15;11.90;73.90
8422;DHT22;4248;48.196;10.924;2022-10-31T18:00:40;11.90;73.90
8422;DHT22;4248;48.196;10.924;2022-10-31T18:03:06;11.90;73.70
8422;DHT22;4248;48.196;10.924;2022-10-31T18:05:32;11.90;73.50
8422;DHT22;4248;48.196;10.924;2022-10-31T18:07:59;11.80;73.20
8422;DHT22;4248;48.196;10.924;2022-10-31T18:10:25;11.80;72.30
8422;DHT22;4248;48.196;10.924;2022-10-31T18:12:51;11.80;73.40
8422;DHT22;4248;48.196;10.924;2022-10-31T18:15:17;11.80;73.50
8422;DHT22;4248;48.196;10.924;2022-10-31T18:17:44;11.70;73.50
8422;DHT22;4248;48.196;10.924;2022-10-31T18:20:11;11.70;73.70
8422;DHT22;4248;48.196;10.924;2022-10-31T18:22:36;11.60;74.90
8422;DHT22;4248;48.196;10.924;2022-10-31T18:25:03;11.40;73.90
8422;DHT22;4248;48.196;10.924;2022-10-31T18:27:28;11.30;73.90
8422;DHT22;4248;48.196;10.924;2022-10-31T18:29:54;11.20;73.90
8422;DHT22;4248;48.196;10.924;2022-10-31T18:32:20;11.20;73.90
8422;DHT22;4248;48.196;10.924;2022-10-31T18:34:46;11.20;73.70
8422;DHT22;4248;48.196;10.924;2022-10-31T18:37:11;11.10;73.70
8422;DHT22;4248;48.196;10.924;2022-10-31T18:39:37;11.10;72.30
8422;DHT22;4248;48.196;10.924;2022-10-31T18:42:03;11.10;73.30
8422;DHT22;4248;48.196;10.924;2022-10-31T18:44:28;11.10;72.90
8422;DHT22;4248;48.196;10.924;2022-10-31T18:46:54;11.20;72.60
8422;DHT22;4248;48.196;10.924;2022-10-31T18:49:20;11.30;71.50
8422;DHT22;4248;48.196;10.924;2022-10-31T18:51:50;11.30;72.50
8422;DHT22;4248;48.196;10.924;2022-10-31T18:54:16;11.30;72.30
8422;DHT22;4248;48.196;10.924;2022-10-31T18:56:42;11.30;72.30
8422;DHT22;4248;48.196;10.924;2022-10-31T18:59:08;11.40;72.50
8422;DHT22;4248;48.196;10.924;2022-10-31T19:01:35;11.40;72.40
8422;DHT22;4248;48.196;10.924;2022-10-31T19:04:00;11.40;72.40
8422;DHT22;4248;48.196;10.924;2022-10-31T19:06:26;11.50;72.30
8422;DHT22;4248;48.196;10.924;2022-10-31T19:08:58;11.50;72.20
8422;DHT22;4248;48.196;10.924;2022-10-31T19:11:24;11.50;71.30
8422;DHT22;4248;48.196;10.924;2022-10-31T19:13:49;11.50;72.40
8422;DHT22;4248;48.196;10.924;2022-10-31T19:16:15;11.40;72.40
8422;DHT22;4248;48.196;10.924;2022-10-31T19:18:42;11.40;72.70